createdAt,value
2022-10-19T00:00:45.899Z,71.03
2022-10-19T00:01:46.123Z,70.79
2022-10-19T00:02:46.228Z,70.89
2022-10-19T00:03:46.493Z,70.69
2022-10-19T00:04:46.556Z,70.49
2022-10-19T00:05:46.725Z,70.79
2022-10-19T00:06:46.890Z,70.79
2022-10-19T00:07:47.028Z,70.69
2022-10-19T00:08:47.188Z,70.08
2022-10-19T00:09:47.348Z,70.39
2022-10-19T00:10:47.509Z,70.69
2022-10-19T00:11:47.691Z,70.39
2022-10-19T00:13:48.019Z,70.49
2022-10-19T00:14:48.181Z,70.69
2022-10-19T00:15:48.356Z,70.08
2022-10-19T00:16:48.547Z,70.39
2022-10-19T00:17:48.718Z,70.59
2022-10-19T00:18:48.883Z,70.08
2022-10-19T00:19:49.038Z,70.59
2022-10-19T00:20:49.213Z,69.98
2022-10-19T00:22:49.547Z,70.29
2022-10-19T00:23:49.710Z,69.98
2022-10-19T00:24:49.878Z,69.48
2022-10-19T00:25:50.051Z,69.98
2022-10-19T00:26:50.212Z,70.08
2022-10-19T00:27:50.387Z,70.39
2022-10-19T00:28:50.607Z,69.98
2022-10-19T00:29:50.706Z,69.68
2022-10-19T00:30:50.861Z,69.88
2022-10-19T00:31:51.043Z,68.97
2022-10-19T00:32:51.207Z,69.48
2022-10-19T00:33:51.371Z,70.08
2022-10-19T00:34:51.559Z,69.88
2022-10-19T00:35:51.718Z,70.18
2022-10-19T00:36:51.908Z,70.29
2022-10-19T00:37:52.039Z,69.68
2022-10-19T00:38:52.198Z,69.37
2022-10-19T00:39:52.372Z,69.27
2022-10-19T00:40:52.518Z,69.17
2022-10-19T00:41:52.738Z,69.27
2022-10-19T00:42:52.890Z,68.77
2022-10-19T00:43:53.097Z,69.37
2022-10-19T00:44:53.268Z,69.37
2022-10-19T00:45:53.428Z,69.57
2022-10-19T00:46:53.632Z,69.07
2022-10-19T00:47:53.758Z,69.48
2022-10-19T00:48:53.913Z,69.88
2022-10-19T00:49:54.108Z,69.37
2022-10-19T00:50:54.288Z,69.37
2022-10-19T00:51:54.448Z,69.78
2022-10-19T00:52:54.607Z,69.68
2022-10-19T00:53:54.777Z,69.98
2022-10-19T00:54:54.949Z,69.17
2022-10-19T00:55:55.138Z,69.37
2022-10-19T00:56:55.268Z,69.07
2022-10-19T00:57:55.429Z,69.27
2022-10-19T00:58:55.578Z,68.87
2022-10-19T00:59:55.746Z,68.43
2022-10-19T01:00:55.946Z,68.97
2022-10-19T01:01:56.079Z,68.87
2022-10-19T01:02:56.229Z,68.56
2022-10-19T01:03:56.434Z,68.36
2022-10-19T01:04:56.588Z,68.56
2022-10-19T01:05:56.791Z,68.56
2022-10-19T01:06:56.917Z,68.97
2022-10-19T01:07:57.108Z,68.97
2022-10-19T01:08:57.258Z,69.07
2022-10-19T01:09:57.460Z,68.97
2022-10-19T01:10:57.638Z,69.17
2022-10-19T01:11:57.798Z,69.07
2022-10-19T01:12:57.959Z,69.07
2022-10-19T01:13:58.157Z,68.97
2022-10-19T01:14:58.371Z,68.87
2022-10-19T01:15:58.568Z,68.46
2022-10-19T01:16:58.737Z,68.06
2022-10-19T01:17:58.859Z,68.56
2022-10-19T01:18:59.024Z,69.07
2022-10-19T01:19:59.178Z,68.97
2022-10-19T01:20:59.348Z,68.56
2022-10-19T01:21:59.518Z,68.46
2022-10-19T01:22:59.668Z,68.36
2022-10-19T01:23:59.838Z,68.66
2022-10-19T01:25:00.000Z,68.97
2022-10-19T01:26:00.179Z,69.07
2022-10-19T01:27:00.349Z,68.26
2022-10-19T01:28:00.518Z,68.66
2022-10-19T01:29:00.758Z,68.36
2022-10-19T01:30:00.858Z,68.77
2022-10-19T01:31:01.042Z,68.97
2022-10-19T01:32:01.199Z,68.77
2022-10-19T01:33:01.373Z,68.26
2022-10-19T01:34:01.537Z,68.16
2022-10-19T01:35:01.691Z,68.26
2022-10-19T01:36:01.868Z,68.66
2022-10-19T01:37:02.038Z,68.16
2022-10-19T01:38:02.215Z,68.56
2022-10-19T01:39:02.371Z,68.46
2022-10-19T01:40:02.529Z,68.66
2022-10-19T01:41:02.707Z,68.87
2022-10-19T01:42:02.868Z,68.56
2022-10-19T01:43:03.055Z,68.77
2022-10-19T01:44:03.226Z,68.46
2022-10-19T01:45:03.396Z,68.36
2022-10-19T01:46:03.601Z,68.66
2022-10-19T01:47:03.772Z,68.56
2022-10-19T01:48:03.912Z,68.87
2022-10-19T01:49:04.084Z,68.66
2022-10-19T01:50:04.268Z,68.87
2022-10-19T01:51:04.448Z,68.77
2022-10-19T01:52:04.609Z,68.26
2022-10-19T01:53:04.776Z,68.56
2022-10-19T01:54:04.948Z,68.36
2022-10-19T01:55:05.109Z,68.16
2022-10-19T01:56:05.299Z,67.96
2022-10-19T01:57:05.420Z,68.16
2022-10-19T01:58:08.320Z,68.26
2022-10-19T01:59:05.776Z,68.29
2022-10-19T02:00:05.947Z,68.60
2022-10-19T02:01:06.232Z,68.60
2022-10-19T02:02:06.267Z,68.70
2022-10-19T02:03:06.428Z,68.60
2022-10-19T02:04:06.629Z,68.49
2022-10-19T02:05:06.789Z,68.49
2022-10-19T02:06:07.002Z,68.70
2022-10-19T02:07:07.148Z,68.70
2022-10-19T02:08:07.298Z,69.00
2022-10-19T02:09:07.459Z,69.10
2022-10-19T02:10:07.679Z,69.10
2022-10-19T02:11:07.795Z,68.70
2022-10-19T02:12:07.966Z,68.60
2022-10-19T02:13:08.118Z,68.60
2022-10-19T02:14:08.295Z,68.90
2022-10-19T02:15:08.448Z,68.90
2022-10-19T02:16:08.630Z,68.70
2022-10-19T02:17:08.779Z,68.49
2022-10-19T02:18:09.007Z,68.90
2022-10-19T02:19:09.147Z,68.80
2022-10-19T02:20:09.315Z,68.80
2022-10-19T02:21:09.507Z,68.49
2022-10-19T02:22:09.629Z,68.70
2022-10-19T02:23:09.797Z,68.70
2022-10-19T02:24:09.949Z,68.60
2022-10-19T02:25:10.108Z,68.29
2022-10-19T02:26:10.285Z,68.40
2022-10-19T02:27:10.440Z,68.49
2022-10-19T02:28:10.608Z,68.70
2022-10-19T02:29:10.778Z,68.09
2022-10-19T02:30:10.959Z,67.99
2022-10-19T02:31:11.139Z,68.06
2022-10-19T02:32:11.309Z,67.55
2022-10-19T02:33:11.485Z,68.09
2022-10-19T02:34:11.661Z,67.96
2022-10-19T02:35:11.832Z,67.65
2022-10-19T02:36:12.015Z,67.55
2022-10-19T02:37:12.190Z,67.48
2022-10-19T02:38:12.371Z,67.38
2022-10-19T02:39:12.539Z,67.79
2022-10-19T02:40:12.708Z,67.55
2022-10-19T02:41:12.888Z,67.35
2022-10-19T02:42:13.048Z,67.45
2022-10-19T02:43:13.219Z,67.55
2022-10-19T02:44:13.378Z,67.79
2022-10-19T02:45:13.550Z,67.35
2022-10-19T02:46:13.738Z,67.38
2022-10-19T02:47:13.893Z,67.35
2022-10-19T02:48:14.067Z,67.55
2022-10-19T02:49:14.253Z,67.55
2022-10-19T02:50:14.418Z,67.25
2022-10-19T02:51:14.580Z,67.28
2022-10-19T02:52:14.740Z,67.68
2022-10-19T02:53:14.897Z,67.68
2022-10-19T02:54:15.059Z,67.58
2022-10-19T02:55:15.216Z,67.48
2022-10-19T02:56:15.409Z,67.48
2022-10-19T02:57:15.537Z,67.58
2022-10-19T02:58:15.700Z,67.18
2022-10-19T02:59:15.870Z,67.48
2022-10-19T03:00:16.050Z,67.48
2022-10-19T03:01:16.264Z,67.68
2022-10-19T03:02:16.390Z,67.99
2022-10-19T03:03:16.545Z,67.85
2022-10-19T03:04:16.708Z,67.58
2022-10-19T03:05:16.867Z,67.45
2022-10-19T03:06:17.037Z,67.76
2022-10-19T03:07:17.199Z,67.65
2022-10-19T03:08:17.399Z,67.85
2022-10-19T03:09:17.548Z,67.96
2022-10-19T03:10:17.748Z,67.76
2022-10-19T03:11:17.936Z,67.45
2022-10-19T03:12:18.087Z,67.55
2022-10-19T03:13:18.239Z,67.45
2022-10-19T03:14:18.478Z,67.55
2022-10-19T03:15:18.619Z,67.48
2022-10-19T03:16:18.797Z,67.68
2022-10-19T03:17:19.020Z,67.89
2022-10-19T03:18:19.138Z,68.19
2022-10-19T03:19:19.288Z,67.79
2022-10-19T03:20:19.487Z,67.99
2022-10-19T03:21:19.661Z,67.85
2022-10-19T03:22:19.819Z,67.85
2022-10-19T03:23:19.981Z,67.96
2022-10-19T03:24:20.185Z,67.55
2022-10-19T03:25:20.328Z,67.65
2022-10-19T03:26:20.510Z,67.55
2022-10-19T03:27:20.669Z,67.96
2022-10-19T03:28:20.830Z,67.55
2022-10-19T03:29:20.988Z,67.55
2022-10-19T03:30:21.147Z,67.45
2022-10-19T03:31:21.321Z,67.65
2022-10-19T03:32:21.486Z,67.45
2022-10-19T03:33:21.703Z,67.76
2022-10-19T03:34:21.828Z,67.85
2022-10-19T03:35:21.988Z,68.06
2022-10-19T03:36:22.159Z,67.85
2022-10-19T03:37:22.319Z,67.45
2022-10-19T03:38:22.478Z,67.65
2022-10-19T03:39:22.638Z,67.76
2022-10-19T03:40:22.799Z,67.85
2022-10-19T03:41:22.978Z,67.65
2022-10-19T03:42:23.138Z,67.55
2022-10-19T03:43:23.298Z,67.76
2022-10-19T03:44:23.458Z,67.85
2022-10-19T03:45:23.627Z,67.76
2022-10-19T03:46:23.808Z,67.65
2022-10-19T03:47:23.974Z,67.55
2022-10-19T03:48:24.131Z,67.55
2022-10-19T03:49:24.289Z,67.45
2022-10-19T03:50:24.457Z,67.55
2022-10-19T03:51:24.628Z,67.76
2022-10-19T03:52:24.806Z,67.85
2022-10-19T03:53:24.949Z,67.76
2022-10-19T03:54:27.397Z,67.76
2022-10-19T03:55:25.321Z,67.85
2022-10-19T03:56:25.498Z,67.76
2022-10-19T03:57:25.650Z,67.55
2022-10-19T03:58:25.808Z,68.06
2022-10-19T03:59:25.971Z,67.76
2022-10-19T04:00:26.168Z,67.55
2022-10-19T04:01:26.414Z,67.76
2022-10-19T04:02:26.519Z,67.76
2022-10-19T04:03:26.741Z,67.76
2022-10-19T04:04:26.868Z,67.96
2022-10-19T04:05:27.047Z,68.16
2022-10-19T04:06:27.226Z,67.96
2022-10-19T04:07:27.398Z,67.96
2022-10-19T04:08:27.569Z,67.96
2022-10-19T04:09:27.728Z,68.06
2022-10-19T04:10:27.896Z,68.06
2022-10-19T04:11:28.070Z,68.16
2022-10-19T04:12:28.227Z,68.06
2022-10-19T04:13:28.388Z,68.16
2022-10-19T04:14:33.286Z,68.06
2022-10-19T04:15:29.729Z,67.89
2022-10-19T04:16:28.942Z,68.09
2022-10-19T04:17:29.100Z,67.85
2022-10-19T04:18:29.266Z,68.06
2022-10-19T04:19:29.417Z,68.06
2022-10-19T04:20:29.617Z,67.96
2022-10-19T04:21:29.788Z,67.85
2022-10-19T04:22:29.955Z,67.85
2022-10-19T04:23:30.108Z,67.96
2022-10-19T04:24:30.277Z,67.76
2022-10-19T04:25:30.428Z,67.65
2022-10-19T04:26:30.616Z,67.85
2022-10-19T04:27:30.832Z,68.06
2022-10-19T04:28:30.998Z,67.85
2022-10-19T04:29:31.099Z,67.76
2022-10-19T04:30:31.289Z,67.85
2022-10-19T04:31:31.466Z,67.96
2022-10-19T04:32:31.622Z,68.16
2022-10-19T04:33:31.873Z,68.06
2022-10-19T04:34:33.326Z,67.99
2022-10-19T04:35:32.146Z,68.09
2022-10-19T04:36:32.358Z,68.09
2022-10-19T04:37:32.841Z,67.99
2022-10-19T04:38:32.713Z,68.06
2022-10-19T04:39:32.868Z,68.16
2022-10-19T04:40:33.035Z,68.26
2022-10-19T04:41:33.217Z,68.16
2022-10-19T04:42:33.401Z,68.06
2022-10-19T04:43:33.555Z,68.06
2022-10-19T04:44:33.708Z,67.79
2022-10-19T04:45:33.878Z,68.09
2022-10-19T04:46:34.063Z,68.29
2022-10-19T04:47:34.266Z,68.29
2022-10-19T04:48:34.397Z,68.49
2022-10-19T04:49:34.568Z,68.29
2022-10-19T04:50:34.729Z,68.40
2022-10-19T04:51:34.910Z,68.19
2022-10-19T04:52:35.068Z,68.29
2022-10-19T04:53:35.232Z,67.99
2022-10-19T04:54:35.379Z,68.09
2022-10-19T04:55:35.586Z,67.79
2022-10-19T04:56:35.758Z,67.79
2022-10-19T04:57:36.266Z,67.79
2022-10-19T04:58:36.097Z,67.89
2022-10-19T04:59:36.259Z,68.09
2022-10-19T05:00:36.493Z,68.19
2022-10-19T05:01:36.619Z,68.19
2022-10-19T05:02:36.768Z,68.09
2022-10-19T05:03:36.929Z,68.19
2022-10-19T05:04:38.299Z,68.19
2022-10-19T05:05:37.270Z,68.29
2022-10-19T05:06:37.438Z,68.19
2022-10-19T05:07:37.598Z,68.49
2022-10-19T05:08:37.760Z,68.29
2022-10-19T05:09:37.925Z,68.19
2022-10-19T05:10:38.086Z,68.60
2022-10-19T05:11:38.288Z,68.19
2022-10-19T05:12:38.409Z,68.40
2022-10-19T05:13:38.577Z,68.19
2022-10-19T05:14:41.917Z,68.40
2022-10-19T05:15:38.929Z,68.19
2022-10-19T05:16:39.139Z,68.29
2022-10-19T05:17:39.270Z,68.40
2022-10-19T05:18:39.432Z,68.40
2022-10-19T05:19:39.618Z,68.19
2022-10-19T05:20:39.786Z,67.99
2022-10-19T05:21:39.960Z,67.89
2022-10-19T05:22:40.132Z,68.19
2022-10-19T05:23:40.327Z,67.79
2022-10-19T05:24:40.488Z,67.99
2022-10-19T05:25:40.678Z,68.09
2022-10-19T05:26:40.826Z,67.89
2022-10-19T05:27:41.005Z,67.89
2022-10-19T05:28:41.262Z,67.38
2022-10-19T05:29:41.349Z,67.89
2022-10-19T05:30:45.411Z,68.19
2022-10-19T05:31:42.721Z,68.09
2022-10-19T05:32:41.869Z,67.79
2022-10-19T05:33:42.058Z,67.58
2022-10-19T05:34:42.237Z,67.68
2022-10-19T05:35:42.428Z,67.79
2022-10-19T05:36:42.729Z,67.68
2022-10-19T05:37:42.758Z,67.89
2022-10-19T05:38:42.937Z,67.55
2022-10-19T05:39:43.118Z,67.79
2022-10-19T05:40:43.289Z,67.68
2022-10-19T05:41:43.499Z,67.38
2022-10-19T05:42:43.618Z,67.89
2022-10-19T05:43:43.779Z,67.89
2022-10-19T05:44:43.971Z,67.89
2022-10-19T05:45:44.170Z,67.79
2022-10-19T05:46:44.308Z,68.29
2022-10-19T05:47:44.488Z,67.99
2022-10-19T05:48:44.658Z,68.19
2022-10-19T05:49:44.837Z,68.40
2022-10-19T05:50:45.038Z,68.49
2022-10-19T05:51:45.220Z,68.49
2022-10-19T05:52:45.369Z,68.29
2022-10-19T05:53:45.556Z,68.29
2022-10-19T05:54:45.730Z,68.29
2022-10-19T05:55:45.918Z,68.19
2022-10-19T05:56:46.065Z,68.40
2022-10-19T05:57:46.260Z,67.99
2022-10-19T05:58:46.422Z,68.19
2022-10-19T05:59:46.598Z,68.16
2022-10-19T06:00:46.801Z,68.06
2022-10-19T06:01:47.006Z,68.06
2022-10-19T06:02:47.129Z,67.65
2022-10-19T06:03:47.322Z,68.06
2022-10-19T06:04:47.508Z,68.06
2022-10-19T06:05:47.699Z,68.26
2022-10-19T06:06:47.878Z,67.96
2022-10-19T06:07:48.060Z,67.85
2022-10-19T06:08:48.248Z,67.85
2022-10-19T06:09:48.438Z,67.76
2022-10-19T06:10:48.609Z,67.55
2022-10-19T06:11:48.789Z,67.45
2022-10-19T06:12:48.949Z,67.76
2022-10-19T06:13:49.128Z,67.85
2022-10-19T06:14:49.306Z,67.55
2022-10-19T06:15:49.488Z,67.76
2022-10-19T06:16:49.638Z,67.85
2022-10-19T06:17:49.827Z,67.96
2022-10-19T06:18:50.038Z,67.96
2022-10-19T06:19:50.186Z,68.06
2022-10-19T06:20:50.359Z,67.96
2022-10-19T06:21:50.517Z,67.85
2022-10-19T06:22:50.698Z,67.96
2022-10-19T06:23:50.878Z,67.96
2022-10-19T06:24:51.030Z,67.96
2022-10-19T06:25:51.231Z,67.85
2022-10-19T06:26:51.378Z,67.76
2022-10-19T06:27:51.611Z,67.55
2022-10-19T06:28:51.738Z,67.85
2022-10-19T06:29:51.888Z,67.76
2022-10-19T06:30:52.143Z,67.32
2022-10-19T06:31:52.229Z,67.42
2022-10-19T06:32:52.545Z,67.42
2022-10-19T06:33:52.648Z,67.01
2022-10-19T06:34:56.402Z,67.22
2022-10-19T06:35:52.948Z,67.32
2022-10-19T06:36:53.118Z,67.22
2022-10-19T06:37:53.315Z,66.91
2022-10-19T06:38:53.468Z,66.81
2022-10-19T06:39:53.694Z,66.78
2022-10-19T06:40:53.849Z,66.67
2022-10-19T06:41:54.021Z,66.88
2022-10-19T06:42:54.190Z,66.88
2022-10-19T06:43:54.373Z,66.58
2022-10-19T06:44:54.539Z,66.47
2022-10-19T06:45:54.719Z,66.47
2022-10-19T06:46:54.870Z,66.17
2022-10-19T06:47:55.051Z,65.77
2022-10-19T06:48:55.212Z,66.27
2022-10-19T06:49:55.396Z,66.38
2022-10-19T06:50:55.587Z,66.07
2022-10-19T06:51:55.768Z,66.38
2022-10-19T06:52:55.960Z,66.17
2022-10-19T06:53:57.022Z,66.07
2022-10-19T06:54:56.309Z,66.07
2022-10-19T06:55:56.461Z,66.27
2022-10-19T06:56:56.644Z,66.07
2022-10-19T06:57:56.820Z,66.07
2022-10-19T06:58:56.998Z,66.27
2022-10-19T06:59:57.198Z,65.97
2022-10-19T07:00:57.436Z,66.35
2022-10-19T07:01:57.508Z,66.04
2022-10-19T07:02:57.692Z,65.94
2022-10-19T07:03:57.869Z,65.73
2022-10-19T07:04:58.061Z,66.04
2022-10-19T07:05:58.209Z,65.84
2022-10-19T07:06:58.378Z,65.64
2022-10-19T07:07:58.626Z,65.53
2022-10-19T07:08:58.729Z,65.33
2022-10-19T07:09:58.919Z,65.84
2022-10-19T07:10:59.081Z,65.30
2022-10-19T07:11:59.270Z,65.40
2022-10-19T07:12:59.446Z,65.30
2022-10-19T07:13:59.600Z,65.10
2022-10-19T07:14:59.837Z,65.61
2022-10-19T07:15:59.950Z,65.30
2022-10-19T07:17:00.120Z,64.90
2022-10-19T07:18:00.317Z,64.79
2022-10-19T07:19:00.460Z,64.79
2022-10-19T07:20:00.660Z,64.39
2022-10-19T07:21:00.800Z,64.49
2022-10-19T07:22:00.996Z,64.39
2022-10-19T07:23:01.159Z,63.89
2022-10-19T07:24:01.362Z,64.09
2022-10-19T07:25:01.513Z,64.09
2022-10-19T07:26:01.692Z,64.29
2022-10-19T07:27:01.879Z,64.19
2022-10-19T07:28:02.079Z,63.99
2022-10-19T07:29:02.243Z,64.06
2022-10-19T07:30:02.419Z,64.06
2022-10-19T07:31:02.558Z,64.36
2022-10-19T07:32:02.746Z,63.76
2022-10-19T07:33:02.981Z,63.96
2022-10-19T07:34:03.112Z,64.46
2022-10-19T07:35:03.279Z,63.65
2022-10-19T07:36:03.460Z,63.55
2022-10-19T07:37:03.640Z,63.55
2022-10-19T07:38:03.828Z,63.35
2022-10-19T07:39:03.999Z,62.64
2022-10-19T07:40:04.150Z,63.15
2022-10-19T07:41:04.329Z,63.15
2022-10-19T07:42:04.519Z,63.15
2022-10-19T07:43:04.699Z,62.74
2022-10-19T07:44:04.899Z,62.82
2022-10-19T07:45:05.071Z,62.31
2022-10-19T07:46:05.253Z,62.31
2022-10-19T07:47:05.408Z,62.82
2022-10-19T07:48:05.590Z,62.31
2022-10-19T07:49:05.780Z,62.48
2022-10-19T07:50:05.929Z,62.59
2022-10-19T07:51:06.080Z,62.38
2022-10-19T07:52:06.273Z,62.15
2022-10-19T07:53:06.459Z,61.75
2022-10-19T07:54:06.641Z,61.44
2022-10-19T07:55:06.789Z,61.14
2022-10-19T07:56:06.977Z,61.61
2022-10-19T07:57:07.149Z,61.01
2022-10-19T07:58:07.349Z,60.91
2022-10-19T07:59:07.490Z,61.41
2022-10-19T08:00:07.669Z,61.18
2022-10-19T08:01:07.849Z,61.39
2022-10-19T08:02:08.091Z,60.68
2022-10-19T08:05:11.689Z,60.65
2022-10-19T08:06:08.713Z,60.35
2022-10-19T08:07:08.934Z,59.84
2022-10-19T08:08:09.098Z,59.31
2022-10-19T08:09:09.333Z,58.61
2022-10-19T08:10:09.400Z,58.41
2022-10-19T08:11:09.565Z,58.81
2022-10-19T08:12:14.603Z,58.61
2022-10-19T08:13:10.929Z,58.31
2022-10-19T08:14:10.092Z,58.38
2022-10-19T08:15:10.312Z,57.78
2022-10-19T08:16:10.472Z,57.98
2022-10-19T08:17:10.622Z,58.98
2022-10-19T08:18:10.821Z,58.28
2022-10-19T08:19:10.990Z,58.58
2022-10-19T08:20:11.180Z,58.35
2022-10-19T08:21:11.370Z,57.24
2022-10-19T08:22:11.550Z,57.24
2022-10-19T08:23:11.768Z,57.15
2022-10-19T08:24:11.915Z,57.52
2022-10-19T08:25:12.117Z,56.62
2022-10-19T08:26:12.273Z,56.49
2022-10-19T08:27:12.452Z,56.19
2022-10-19T08:28:12.660Z,56.09
2022-10-19T08:29:12.825Z,55.88
2022-10-19T08:30:13.000Z,56.38
2022-10-19T08:31:13.200Z,54.88
2022-10-19T08:32:13.371Z,56.19
2022-10-19T08:33:13.551Z,55.58
2022-10-19T08:34:13.701Z,55.48
2022-10-19T08:35:13.872Z,55.18
2022-10-19T08:36:14.068Z,54.68
2022-10-19T08:37:25.744Z,54.98
2022-10-19T08:38:15.413Z,55.61
2022-10-19T08:39:14.566Z,55.61
2022-10-19T08:40:14.754Z,55.61
2022-10-19T08:41:14.922Z,55.81
2022-10-19T08:42:15.084Z,55.91
2022-10-19T08:43:15.246Z,55.43
2022-10-19T08:44:15.381Z,55.54
2022-10-19T08:45:15.570Z,55.54
2022-10-19T08:46:15.752Z,56.24
2022-10-19T08:47:17.579Z,55.94
2022-10-19T08:48:16.112Z,55.63
2022-10-19T08:49:16.282Z,55.43
2022-10-19T08:50:16.472Z,55.63
2022-10-19T08:51:16.641Z,55.91
2022-10-19T08:52:16.784Z,55.61
2022-10-19T08:53:16.982Z,55.61
2022-10-19T08:54:17.133Z,55.71
2022-10-19T08:55:20.421Z,55.91
2022-10-19T08:56:26.940Z,56.31
2022-10-19T08:57:18.671Z,56.01
2022-10-19T08:58:17.864Z,55.11
2022-10-19T08:59:18.020Z,55.38
2022-10-19T09:00:18.162Z,56.49
2022-10-19T09:01:18.342Z,56.49
2022-10-19T09:02:18.512Z,55.48
2022-10-19T09:03:27.127Z,55.08
2022-10-19T09:04:19.872Z,55.08
2022-10-19T09:05:19.062Z,54.88
2022-10-19T09:06:19.246Z,54.28
2022-10-19T09:07:19.433Z,54.96
2022-10-19T09:08:19.612Z,54.35
2022-10-19T09:09:19.773Z,54.65
2022-10-19T09:10:20.028Z,54.35
2022-10-19T09:11:20.123Z,54.45
2022-10-19T09:12:20.314Z,54.45
2022-10-19T09:13:20.507Z,54.25
2022-10-19T09:14:20.654Z,53.45
2022-10-19T09:15:20.834Z,53.72
2022-10-19T09:16:21.013Z,53.22
2022-10-19T09:17:21.200Z,53.52
2022-10-19T09:18:21.387Z,53.59
2022-10-19T09:19:21.565Z,53.50
2022-10-19T09:20:21.717Z,53.97
2022-10-19T09:21:30.145Z,52.34
2022-10-19T09:22:23.064Z,51.42
2022-10-19T09:23:22.296Z,51.92
2022-10-19T09:24:22.407Z,51.39
2022-10-19T09:25:22.567Z,50.67
2022-10-19T09:26:22.746Z,50.54
2022-10-19T09:27:22.914Z,50.14
2022-10-19T09:28:25.694Z,48.84
2022-10-19T09:29:24.282Z,49.84
2022-10-19T09:30:23.455Z,49.26
2022-10-19T09:31:23.617Z,49.37
2022-10-19T09:32:23.774Z,48.86
2022-10-19T09:33:24.504Z,49.16
2022-10-19T09:34:24.135Z,48.74
2022-10-19T09:35:24.340Z,49.44
2022-10-19T09:36:33.246Z,49.94
2022-10-19T09:37:26.851Z,50.07
2022-10-19T09:38:24.835Z,50.57
2022-10-19T09:39:27.080Z,50.57
2022-10-19T09:40:25.178Z,49.66
2022-10-19T09:41:25.355Z,49.89
2022-10-19T09:42:25.545Z,49.58
2022-10-19T09:43:25.707Z,49.69
2022-10-19T09:44:25.875Z,50.31
2022-10-19T09:45:26.089Z,50.71
2022-10-19T09:46:26.227Z,50.04
2022-10-19T09:47:26.428Z,50.44
2022-10-19T09:48:26.596Z,50.86
2022-10-19T09:49:26.776Z,51.29
2022-10-19T09:50:26.966Z,52.29
2022-10-19T09:51:27.133Z,52.51
2022-10-19T09:52:27.327Z,51.84
2022-10-19T09:53:27.466Z,53.05
2022-10-19T09:54:27.616Z,53.37
2022-10-19T09:55:27.801Z,53.37
2022-10-19T09:56:27.987Z,53.47
2022-10-19T09:57:28.177Z,53.80
2022-10-19T09:58:32.123Z,53.30
2022-10-19T09:59:29.547Z,53.83
2022-10-19T10:00:28.705Z,54.63
2022-10-19T10:01:39.937Z,54.53
2022-10-19T10:02:30.157Z,54.93
2022-10-19T10:03:29.254Z,55.23
2022-10-19T10:04:29.397Z,55.94
2022-10-19T10:05:29.591Z,54.93
2022-10-19T10:06:29.740Z,55.03
2022-10-19T10:07:29.946Z,55.63
2022-10-19T10:08:30.187Z,54.73
2022-10-19T10:09:30.265Z,55.21
2022-10-19T10:10:30.653Z,55.31
2022-10-19T10:11:30.619Z,54.78
2022-10-19T10:12:30.914Z,55.08
2022-10-19T10:13:30.988Z,53.45
2022-10-19T10:14:31.178Z,53.05
2022-10-19T10:15:31.315Z,53.42
2022-10-19T10:16:31.515Z,52.49
2022-10-19T10:17:31.686Z,53.20
2022-10-19T10:18:31.837Z,52.69
2022-10-19T10:19:32.049Z,51.39
2022-10-19T10:20:32.179Z,51.59
2022-10-19T10:21:32.362Z,52.19
2022-10-19T10:22:33.484Z,51.69
2022-10-19T10:23:32.720Z,51.89
2022-10-19T10:24:32.897Z,51.92
2022-10-19T10:25:33.078Z,51.81
2022-10-19T10:26:33.381Z,52.51
2022-10-19T10:27:33.755Z,52.74
2022-10-19T10:28:33.621Z,53.07
2022-10-19T10:29:33.775Z,53.77
2022-10-19T10:30:34.001Z,54.08
2022-10-19T10:31:34.148Z,54.17
2022-10-19T10:32:34.679Z,54.28
2022-10-19T10:33:44.197Z,54.20
2022-10-19T10:34:49.844Z,54.30
2022-10-19T10:35:35.859Z,54.40
2022-10-19T10:36:35.038Z,54.00
2022-10-19T10:37:35.559Z,54.00
2022-10-19T10:38:35.356Z,54.00
2022-10-19T10:39:35.526Z,53.52
2022-10-19T10:40:35.700Z,54.13
2022-10-19T10:41:35.880Z,54.73
2022-10-19T10:42:36.437Z,54.63
2022-10-19T10:43:36.229Z,55.33
2022-10-19T10:44:36.409Z,54.93
2022-10-19T10:45:36.589Z,54.53
2022-10-19T10:46:36.791Z,54.93
2022-10-19T10:47:37.244Z,55.63
2022-10-19T10:48:37.099Z,54.80
2022-10-19T10:49:37.292Z,55.11
2022-10-19T10:50:37.440Z,54.71
2022-10-19T10:51:37.629Z,54.30
2022-10-19T10:52:38.263Z,54.10
2022-10-19T10:53:38.019Z,54.71
2022-10-19T10:54:38.179Z,54.40
2022-10-19T10:55:38.380Z,53.67
2022-10-19T10:56:38.550Z,53.27
2022-10-19T10:57:38.747Z,53.67
2022-10-19T10:58:38.914Z,53.55
2022-10-19T10:59:41.742Z,52.84
2022-10-19T11:00:40.274Z,52.64
2022-10-19T11:01:39.449Z,52.72
2022-10-19T11:02:39.560Z,52.62
2022-10-19T11:03:39.710Z,53.02
2022-10-19T11:04:39.860Z,52.12
2022-10-19T11:05:40.051Z,52.19
2022-10-19T11:06:43.691Z,51.59
2022-10-19T11:07:40.433Z,51.79
2022-10-19T11:08:40.609Z,51.69
2022-10-19T11:09:40.726Z,51.79
2022-10-19T11:10:40.918Z,51.29
2022-10-19T11:11:41.168Z,51.99
2022-10-19T11:12:41.252Z,51.81
2022-10-19T11:13:41.402Z,51.89
2022-10-19T11:14:41.573Z,51.69
2022-10-19T11:15:41.723Z,52.42
2022-10-19T11:16:41.871Z,52.12
2022-10-19T11:17:42.082Z,51.51
2022-10-19T11:18:42.222Z,51.42
2022-10-19T11:19:42.402Z,51.31
2022-10-19T11:20:42.583Z,51.92
2022-10-19T11:21:42.724Z,52.04
2022-10-19T11:22:42.960Z,52.14
2022-10-19T11:23:43.072Z,52.44
2022-10-19T11:24:46.320Z,52.84
2022-10-19T11:25:44.482Z,53.65
2022-10-19T11:26:43.642Z,53.14
2022-10-19T11:27:43.843Z,50.46
2022-10-19T11:28:44.001Z,50.66
2022-10-19T11:29:44.192Z,50.76
2022-10-19T11:30:46.236Z,51.36
2022-10-19T11:31:44.573Z,50.38
2022-10-19T11:32:46.050Z,50.28
2022-10-19T11:33:44.906Z,50.48
2022-10-19T11:34:45.050Z,50.78
2022-10-19T11:35:45.242Z,50.28
2022-10-19T11:36:45.403Z,50.08
2022-10-19T11:37:49.877Z,48.37
2022-10-19T11:38:46.753Z,49.45
2022-10-19T11:39:45.971Z,49.55
2022-10-19T11:41:06.098Z,48.44
2022-10-19T11:41:47.263Z,49.25
2022-10-19T11:43:46.634Z,47.92
2022-10-19T11:44:46.845Z,48.02
2022-10-19T11:45:47.002Z,48.43
2022-10-19T11:46:47.274Z,47.02
2022-10-19T11:47:47.393Z,47.22
2022-10-19T11:48:48.977Z,47.62
2022-10-19T11:49:47.751Z,47.02
2022-10-19T11:50:53.915Z,48.72
2022-10-19T11:51:49.089Z,48.93
2022-10-19T11:52:48.283Z,48.22
2022-10-19T11:53:48.468Z,48.93
2022-10-19T11:54:48.652Z,48.43
2022-10-19T11:55:48.834Z,48.52
2022-10-19T11:57:02.883Z,49.30
2022-10-19T11:57:50.224Z,49.51
2022-10-19T11:58:49.383Z,49.30
2022-10-19T11:59:49.534Z,49.10
2022-10-19T12:00:49.714Z,50.31
2022-10-19T12:01:49.950Z,48.90
2022-10-19T12:02:50.096Z,49.10
2022-10-19T12:03:50.334Z,50.01
2022-10-19T12:04:50.455Z,50.11
2022-10-19T12:05:50.614Z,49.51
2022-10-19T12:06:50.798Z,49.30
2022-10-19T12:07:50.994Z,49.71
2022-10-19T12:08:53.830Z,49.30
2022-10-19T12:09:52.344Z,49.30
2022-10-19T12:10:51.553Z,48.60
2022-10-19T12:11:51.674Z,49.40
2022-10-19T12:12:51.873Z,49.71
2022-10-19T12:13:52.101Z,49.60
2022-10-19T12:14:52.216Z,49.71
2022-10-19T12:15:53.165Z,50.03
2022-10-19T12:16:52.545Z,50.23
2022-10-19T12:17:52.745Z,50.03
2022-10-19T12:18:52.916Z,50.13
2022-10-19T12:19:53.102Z,50.73
2022-10-19T12:20:53.285Z,51.24
2022-10-19T12:21:53.486Z,51.51
2022-10-19T12:22:53.667Z,51.92
2022-10-19T12:23:53.830Z,51.51
2022-10-19T12:24:53.975Z,51.21
2022-10-19T12:25:54.162Z,51.51
2022-10-19T12:26:54.375Z,50.11
2022-10-19T12:27:54.539Z,50.59
2022-10-19T12:28:54.699Z,50.38
2022-10-19T12:29:54.870Z,50.79
2022-10-19T12:30:54.986Z,49.98
2022-10-19T12:31:55.177Z,50.38
2022-10-19T12:32:55.390Z,48.48
2022-10-19T12:33:55.534Z,49.08
2022-10-19T12:34:55.727Z,48.68
2022-10-19T12:35:55.879Z,47.47
2022-10-19T12:36:56.064Z,47.67
2022-10-19T12:37:56.197Z,47.97
2022-10-19T12:39:00.009Z,48.16
2022-10-19T12:39:56.589Z,47.55
2022-10-19T12:40:56.719Z,47.35
2022-10-19T12:41:56.936Z,47.25
2022-10-19T12:42:57.070Z,46.55
2022-10-19T12:43:57.254Z,46.75
2022-10-19T12:44:58.734Z,46.65
2022-10-19T12:45:57.595Z,46.25
2022-10-19T12:47:00.817Z,45.65
2022-10-19T12:47:58.020Z,46.35
2022-10-19T12:48:58.138Z,46.25
2022-10-19T12:49:58.348Z,45.45
2022-10-19T12:50:58.477Z,45.25
2022-10-19T12:51:58.675Z,46.15
2022-10-19T12:52:58.818Z,46.04
2022-10-19T12:53:59.009Z,46.75
2022-10-19T12:54:59.218Z,46.55
2022-10-19T12:55:59.349Z,45.75
2022-10-19T12:56:59.623Z,46.07
2022-10-19T12:57:59.725Z,46.27
2022-10-19T12:58:59.907Z,47.07
2022-10-19T13:00:00.099Z,49.21